Terminal Aerodrome Forecast
Issued by NWS

Home | Current Version | Previous Version | Text Only | Print | Product List | Glossary Off
Versions: 1 2 3 4 5 6 7 8 9 10 11 12 13 14 15 16 17

000
FTUS43 KMPX 280520
TAFRNH
TAF
KRNH 280520Z 2806/0106 14008KT P6SM VCSH BKN060 OVC120
     FM280800 13004KT 6SM -RA BR BKN015 OVC040
     FM281200 VRB03KT 4SM -DZ BR OVC009
     FM281400 04005KT 2SM -DZ BR OVC006
     FM282000 36009KT P6SM OVC012
     FM010200 01010KT P6SM VCSH OVC020=

USA.gov is the U.S. government's official web portal to all federal, state and local government web resources and services.